Time;durP1;ratioP1;P1;durP2;ratioP2;P2;SDS_P1;SDS_P2;PMS_P1;PMS_P2;Temp;Humidity;BMP_temperature;BMP_pressure;BME280_temperature;BME280_humidity;BME280_pressure;Samples;Min_cycle;Max_cycle;Signal;HPM_P1;HPM_P2
2023/11/04 00:00:11;;;;;;;1.25;1.20;;;;;;;;;;1039888;28;20045;-73
2023/11/04 00:00:41;;;;;;;2.60;2.33;;;;;;;;;;1039728;28;20394;-73
2023/11/04 00:01:12;;;;;;;1.05;1.05;;;;;;;;;;1039764;28;20067;-72
2023/11/04 00:01:45;;;;;;;4.55;4.25;;;;;;;;;;1039914;28;20033;-72
2023/11/04 00:02:16;;;;;;;1.63;1.52;;;;;;;;;;1039976;28;20029;-72
2023/11/04 00:02:47;;;;;;;5.38;3.13;;;;;;;;;;1039388;28;20064;-72
2023/11/04 00:03:18;;;;;;;2.35;2.03;;;;;;;;;;1039902;28;20018;-72
2023/11/04 00:03:49;;;;;;;2.75;2.47;;;;;;;;;;1041655;28;20029;-72
2023/11/04 00:04:19;;;;;;;1.45;1.38;;;;;;;;;;1041719;28;20036;-72
2023/11/04 00:04:51;;;;;;;3.40;3.15;;;;;;;;;;1041607;28;20025;-72
2023/11/04 00:05:21;;;;;;;2.28;2.08;;;;;;;;;;1041256;28;20028;-72
2023/11/04 00:05:52;;;;;;;1.77;1.67;;;;;;;;;;1039882;28;20017;-72
2023/11/04 00:06:23;;;;;;;2.00;1.70;;;;;;;;;;1039469;28;20025;-72
2023/11/04 00:06:54;;;;;;;1.15;1.05;;;;;;;;;;1039621;28;20025;-72
2023/11/04 00:07:24;;;;;;;9.70;4.45;;;;;;;;;;1039028;28;20599;-72
2023/11/04 00:07:55;;;;;;;1.85;1.55;;;;;;;;;;1039216;28;20117;-72
2023/11/04 00:08:26;;;;;;;3.47;3.17;;;;;;;;;;1039347;28;20214;-72
2023/11/04 00:08:56;;;;;;;16.00;3.92;;;;;;;;;;1039183;28;20163;-72
2023/11/04 00:09:27;;;;;;;4.43;3.22;;;;;;;;;;1039426;28;20021;-72
2023/11/04 00:09:57;;;;;;;2.90;2.70;;;;;;;;;;1039708;28;20034;-72
2023/11/04 00:10:28;;;;;;;3.45;3.03;;;;;;;;;;1039382;28;20029;-72
2023/11/04 00:10:58;;;;;;;2.35;1.85;;;;;;;;;;1039124;28;20473;-73
2023/11/04 00:11:29;;;;;;;2.45;2.05;;;;;;;;;;1039161;28;20021;-73
2023/11/04 00:11:59;;;;;;;1.25;1.15;;;;;;;;;;1039750;28;20401;-72
2023/11/04 00:12:30;;;;;;;1.15;1.08;;;;;;;;;;1038892;28;20060;-72
2023/11/04 00:13:00;;;;;;;3.45;3.15;;;;;;;;;;1039879;28;20067;-73
2023/11/04 00:13:31;;;;;;;3.03;2.83;;;;;;;;;;1039728;28;20033;-73
2023/11/04 00:14:01;;;;;;;3.05;2.80;;;;;;;;;;1039590;28;20087;-73
2023/11/04 00:14:32;;;;;;;8.45;3.75;;;;;;;;;;1039881;28;20076;-72
2023/11/04 00:15:02;;;;;;;4.72;4.15;;;;;;;;;;1042902;28;20075;-72
2023/11/04 00:15:33;;;;;;;3.25;3.05;;;;;;;;;;1040492;28;20421;-73
2023/11/04 00:16:08;;;;;;;2.20;2.10;;;;;;;;;;1041475;28;20120;-72
2023/11/04 00:16:38;;;;;;;1.50;1.40;;;;;;;;;;1039378;28;20025;-72
2023/11/04 00:17:09;;;;;;;2.30;2.10;;;;;;;;;;1039548;28;20108;-72
2023/11/04 00:17:39;;;;;;;8.85;2.50;;;;;;;;;;1039503;28;20524;-76
2023/11/04 00:18:10;;;;;;;1.48;1.35;;;;;;;;;;1039952;28;20474;-73
2023/11/04 00:18:41;;;;;;;3.58;1.60;;;;;;;;;;1039345;28;20032;-73
2023/11/04 00:19:11;;;;;;;1.77;1.67;;;;;;;;;;1038397;28;20539;-73
2023/11/04 00:19:42;;;;;;;1.80;1.70;;;;;;;;;;1040406;28;20459;-73
2023/11/04 00:20:12;;;;;;;10.40;3.40;;;;;;;;;;1037639;28;20548;-72
2023/11/04 00:20:43;;;;;;;5.53;3.92;;;;;;;;;;1039262;28;20082;-73
2023/11/04 00:21:13;;;;;;;1.23;1.23;;;;;;;;;;1038781;28;20029;-72
2023/11/04 00:21:44;;;;;;;8.25;3.75;;;;;;;;;;1039056;28;20029;-72
2023/11/04 00:22:14;;;;;;;2.47;1.25;;;;;;;;;;1039668;28;20034;-73
2023/11/04 00:22:45;;;;;;;0.40;0.40;;;;;;;;;;1039366;28;20021;-73
2023/11/04 00:23:15;;;;;;;2.40;2.17;;;;;;;;;;1038131;28;20516;-72
2023/11/04 00:23:46;;;;;;;3.42;3.13;;;;;;;;;;1039654;28;20079;-73
2023/11/04 00:24:17;;;;;;;4.43;4.03;;;;;;;;;;1039290;28;20018;-72
2023/11/04 00:24:52;;;;;;;1.65;1.48;;;;;;;;;;1038353;28;20428;-73
2023/11/04 00:25:23;;;;;;;2.53;2.33;;;;;;;;;;1039323;28;20038;-72
2023/11/04 00:25:54;;;;;;;1.88;1.77;;;;;;;;;;1040328;28;20489;-72
2023/11/04 00:26:24;;;;;;;3.85;3.55;;;;;;;;;;1038073;28;20033;-73
2023/11/04 00:26:55;;;;;;;7.95;5.63;;;;;;;;;;1039484;28;20075;-73
2023/11/04 00:27:26;;;;;;;2.40;2.17;;;;;;;;;;1039258;28;20026;-73
2023/11/04 00:27:56;;;;;;;0.85;0.85;;;;;;;;;;1035497;28;20022;-73
2023/11/04 00:28:27;;;;;;;1.27;1.15;;;;;;;;;;1039316;28;20025;-73
2023/11/04 00:28:58;;;;;;;10.63;5.00;;;;;;;;;;1040187;28;20477;-73
2023/11/04 00:29:28;;;;;;;1.50;1.33;;;;;;;;;;1039392;28;20390;-72
2023/11/04 00:29:59;;;;;;;3.35;3.15;;;;;;;;;;1039965;28;20040;-72
2023/11/04 00:30:29;;;;;;;3.28;2.58;;;;;;;;;;1039735;28;20044;-72
2023/11/04 00:31:00;;;;;;;2.10;1.95;;;;;;;;;;1039748;28;20018;-73
2023/11/04 00:31:31;;;;;;;7.18;2.25;;;;;;;;;;1041252;28;20024;-74
2023/11/04 00:32:01;;;;;;;2.10;2.00;;;;;;;;;;1041713;28;20078;-73
2023/11/04 00:32:32;;;;;;;2.85;2.65;;;;;;;;;;1042929;28;20163;-73
2023/11/04 00:33:02;;;;;;;3.92;3.70;;;;;;;;;;1040878;28;20117;-72
2023/11/04 00:33:33;;;;;;;5.68;4.72;;;;;;;;;;1039348;28;20035;-74
2023/11/04 00:34:04;;;;;;;5.82;1.50;;;;;;;;;;1041089;28;20044;-73
2023/11/04 00:34:35;;;;;;;2.75;2.53;;;;;;;;;;1041393;28;20419;-74
2023/11/04 00:35:05;;;;;;;7.72;2.13;;;;;;;;;;1041450;28;20024;-74
2023/11/04 00:35:36;;;;;;;1.40;1.33;;;;;;;;;;1041311;28;20396;-73
2023/11/04 00:36:08;;;;;;;10.95;4.30;;;;;;;;;;1039686;28;20520;-73
2023/11/04 00:36:38;;;;;;;3.70;3.20;;;;;;;;;;1039253;28;20026;-74
2023/11/04 00:37:12;;;;;;;0.98;0.95;;;;;;;;;;1039337;28;20021;-73
2023/11/04 00:37:43;;;;;;;1.77;1.63;;;;;;;;;;1039513;28;20032;-73
2023/11/04 00:38:13;;;;;;;2.40;1.77;;;;;;;;;;1037924;28;20025;-73
2023/11/04 00:38:44;;;;;;;7.07;3.85;;;;;;;;;;1039409;28;20036;-74
2023/11/04 00:39:15;;;;;;;1.77;1.67;;;;;;;;;;1039436;28;20057;-74
2023/11/04 00:39:45;;;;;;;4.75;2.85;;;;;;;;;;1039341;28;20052;-74
2023/11/04 00:40:16;;;;;;;2.08;1.88;;;;;;;;;;1039252;28;20050;-73
2023/11/04 00:40:46;;;;;;;1.92;1.75;;;;;;;;;;1038776;28;20071;-74
2023/11/04 00:41:19;;;;;;;1.58;1.50;;;;;;;;;;1037068;28;20560;-73
2023/11/04 00:41:50;;;;;;;6.68;2.30;;;;;;;;;;1035515;28;20398;-74
2023/11/04 00:42:20;;;;;;;2.38;2.17;;;;;;;;;;1034451;28;20018;-74
2023/11/04 00:42:53;;;;;;;6.40;2.75;;;;;;;;;;1033341;28;20030;-73
2023/11/04 00:43:23;;;;;;;3.33;2.78;;;;;;;;;;1032756;28;20061;-74
2023/11/04 00:43:54;;;;;;;2.90;2.50;;;;;;;;;;1035347;28;20049;-73
2023/11/04 00:44:24;;;;;;;8.65;2.45;;;;;;;;;;1035669;28;20025;-74
2023/11/04 00:44:55;;;;;;;2.35;2.15;;;;;;;;;;1039337;28;20024;-73
2023/11/04 00:45:25;;;;;;;3.28;2.97;;;;;;;;;;1039209;28;20112;-74
2023/11/04 00:45:56;;;;;;;2.65;2.33;;;;;;;;;;1038803;28;20112;-73
2023/11/04 00:46:26;;;;;;;6.63;3.72;;;;;;;;;;1039301;28;20055;-73
2023/11/04 00:46:58;;;;;;;5.40;3.88;;;;;;;;;;1039786;28;20033;-73
2023/11/04 00:47:28;;;;;;;18.98;6.30;;;;;;;;;;1041750;28;20155;-74
2023/11/04 00:47:59;;;;;;;8.38;6.15;;;;;;;;;;1041706;28;20028;-74
2023/11/04 00:48:30;;;;;;;10.50;4.57;;;;;;;;;;1040623;28;20029;-74
2023/11/04 00:49:03;;;;;;;9.65;5.55;;;;;;;;;;1041357;28;20025;-74
2023/11/04 00:49:33;;;;;;;19.33;7.13;;;;;;;;;;1039591;28;20029;-74
2023/11/04 00:50:04;;;;;;;15.45;8.43;;;;;;;;;;1040385;28;20025;-73
2023/11/04 00:50:36;;;;;;;15.10;6.40;;;;;;;;;;1039282;28;20501;-73
2023/11/04 00:51:08;;;;;;;12.27;5.55;;;;;;;;;;1037589;28;20025;-74
2023/11/04 00:51:38;;;;;;;12.68;6.93;;;;;;;;;;1037567;28;20545;-74
2023/11/04 00:52:10;;;;;;;22.80;7.75;;;;;;;;;;1039684;28;20021;-74
2023/11/04 00:52:40;;;;;;;14.70;4.80;;;;;;;;;;1040358;28;20036;-74
2023/11/04 00:53:11;;;;;;;30.50;9.98;;;;;;;;;;1041409;28;20428;-73
2023/11/04 00:53:41;;;;;;;23.77;9.45;;;;;;;;;;1041438;28;20548;-73
2023/11/04 00:54:12;;;;;;;24.35;9.00;;;;;;;;;;1039527;28;20022;-73
2023/11/04 00:54:42;;;;;;;21.27;7.93;;;;;;;;;;1039446;28;20079;-73
2023/11/04 00:55:13;;;;;;;35.60;10.80;;;;;;;;;;1039716;28;20117;-74
2023/11/04 00:55:44;;;;;;;34.17;11.25;;;;;;;;;;1039729;28;20036;-74
2023/11/04 00:56:15;;;;;;;15.57;7.57;;;;;;;;;;1039771;28;20049;-73
2023/11/04 00:56:45;;;;;;;18.05;9.70;;;;;;;;;;1039606;28;20009;-73
2023/11/04 00:57:16;;;;;;;45.35;11.00;;;;;;;;;;1038967;28;20453;-73
2023/11/04 00:57:46;;;;;;;12.23;6.72;;;;;;;;;;1039746;28;20018;-73
2023/11/04 00:58:17;;;;;;;7.38;4.63;;;;;;;;;;1039177;28;20031;-74
2023/11/04 00:58:47;;;;;;;12.63;7.60;;;;;;;;;;1039212;28;20535;-74
2023/11/04 00:59:18;;;;;;;10.15;7.57;;;;;;;;;;1039329;28;20051;-73
2023/11/04 00:59:48;;;;;;;15.95;8.43;;;;;;;;;;1039414;28;20412;-73
2023/11/04 01:00:25;;;;;;;17.25;4.93;;;;;;;;;;1039113;28;20032;-74
2023/11/04 01:00:56;;;;;;;8.27;4.28;;;;;;;;;;1039664;28;20040;-74
2023/11/04 01:01:26;;;;;;;29.52;8.50;;;;;;;;;;1039619;28;20025;-73
2023/11/04 01:01:57;;;;;;;12.82;6.32;;;;;;;;;;1038818;28;20029;-74
2023/11/04 01:02:27;;;;;;;5.03;4.20;;;;;;;;;;1038103;28;20055;-74
2023/11/04 01:02:58;;;;;;;13.15;4.05;;;;;;;;;;1039024;28;21355;-74
2023/11/04 01:03:29;;;;;;;16.38;7.53;;;;;;;;;;1038190;28;20029;-73
2023/11/04 01:03:59;;;;;;;4.30;3.67;;;;;;;;;;1039732;28;20086;-73
2023/11/04 01:04:30;;;;;;;3.63;3.33;;;;;;;;;;1040241;28;20425;-73
2023/11/04 01:05:00;;;;;;;11.57;5.78;;;;;;;;;;1040664;28;20025;-73
2023/11/04 01:05:32;;;;;;;2.17;1.48;;;;;;;;;;1039731;28;20033;-73
2023/11/04 01:06:03;;;;;;;10.48;3.17;;;;;;;;;;1039310;28;20060;-73
2023/11/04 01:06:34;;;;;;;3.47;3.25;;;;;;;;;;1039513;28;20032;-73
2023/11/04 01:07:05;;;;;;;1.13;1.10;;;;;;;;;;1039505;28;20025;-73
2023/11/04 01:07:35;;;;;;;4.22;3.85;;;;;;;;;;1039312;28;20029;-73
2023/11/04 01:08:06;;;;;;;8.38;4.13;;;;;;;;;;1039250;28;20057;-73
2023/11/04 01:08:38;;;;;;;5.38;3.53;;;;;;;;;;1039478;28;20119;-73
2023/11/04 01:09:08;;;;;;;3.67;2.92;;;;;;;;;;1039322;28;20101;-73
2023/11/04 01:09:39;;;;;;;9.35;5.53;;;;;;;;;;1038281;28;20088;-72
2023/11/04 01:10:09;;;;;;;6.85;3.35;;;;;;;;;;1038180;28;20017;-73
2023/11/04 01:10:40;;;;;;;18.17;5.90;;;;;;;;;;1039104;28;20018;-73
2023/11/04 01:11:11;;;;;;;13.75;2.63;;;;;;;;;;1038482;28;20513;-74
2023/11/04 01:11:45;;;;;;;9.13;4.38;;;;;;;;;;1038563;28;20129;-73
2023/11/04 01:12:15;;;;;;;6.93;4.22;;;;;;;;;;1039392;28;20036;-73
2023/11/04 01:12:46;;;;;;;2.42;1.70;;;;;;;;;;1041127;28;20028;-74
2023/11/04 01:13:16;;;;;;;7.63;2.35;;;;;;;;;;1039982;28;20032;-74
2023/11/04 01:13:47;;;;;;;9.27;4.38;;;;;;;;;;1041970;28;20021;-74
2023/11/04 01:14:17;;;;;;;8.50;3.40;;;;;;;;;;1037343;28;20033;-74
2023/11/04 01:14:48;;;;;;;2.15;2.05;;;;;;;;;;1036477;28;20072;-73
2023/11/04 01:15:18;;;;;;;6.03;4.45;;;;;;;;;;1036370;28;20063;-74
2023/11/04 01:15:51;;;;;;;3.85;3.47;;;;;;;;;;1039135;28;20493;-74
2023/11/04 01:16:21;;;;;;;2.45;2.28;;;;;;;;;;1041727;28;20029;-74
2023/11/04 01:16:52;;;;;;;11.20;3.47;;;;;;;;;;1038479;28;20022;-73
2023/11/04 01:17:22;;;;;;;13.82;3.65;;;;;;;;;;1036798;28;20032;-73
2023/11/04 01:17:53;;;;;;;3.58;2.63;;;;;;;;;;1038522;28;20025;-73
2023/11/04 01:18:23;;;;;;;6.00;4.50;;;;;;;;;;1037921;28;20068;-73
2023/11/04 01:18:54;;;;;;;3.67;3.15;;;;;;;;;;1037977;28;20029;-75
2023/11/04 01:19:25;;;;;;;5.28;4.95;;;;;;;;;;1038866;28;20275;-74
2023/11/04 01:19:55;;;;;;;3.65;3.40;;;;;;;;;;1039419;28;20021;-74
2023/11/04 01:20:26;;;;;;;4.63;2.08;;;;;;;;;;1041216;28;20059;-74
2023/11/04 01:20:56;;;;;;;4.97;4.05;;;;;;;;;;1040364;28;20029;-74
2023/11/04 01:21:27;;;;;;;5.85;4.13;;;;;;;;;;1039116;28;20037;-74
2023/11/04 01:21:58;;;;;;;4.45;4.07;;;;;;;;;;1038760;28;20795;-74
2023/11/04 01:22:28;;;;;;;10.98;3.78;;;;;;;;;;1038743;28;20079;-74
2023/11/04 01:22:59;;;;;;;2.70;2.45;;;;;;;;;;1039524;28;20037;-74
2023/11/04 01:23:29;;;;;;;9.45;3.53;;;;;;;;;;1037648;28;20029;-74
2023/11/04 01:24:00;;;;;;;5.60;4.65;;;;;;;;;;1034109;28;20032;-74
2023/11/04 01:24:31;;;;;;;3.22;2.42;;;;;;;;;;1034345;28;20033;-74
2023/11/04 01:25:02;;;;;;;5.75;2.97;;;;;;;;;;1034121;28;20494;-74
2023/11/04 01:25:33;;;;;;;7.55;3.55;;;;;;;;;;1036902;28;20029;-74
2023/11/04 01:26:04;;;;;;;4.80;4.30;;;;;;;;;;1038861;28;20025;-74
2023/11/04 01:26:35;;;;;;;4.53;3.88;;;;;;;;;;1038985;28;20432;-75
2023/11/04 01:27:08;;;;;;;13.55;3.67;;;;;;;;;;1038466;28;20060;-74
2023/11/04 01:27:39;;;;;;;19.08;8.27;;;;;;;;;;1044457;22;20108;-73
2023/11/04 01:28:09;;;;;;;8.10;6.30;;;;;;;;;;1035413;28;20052;-73
2023/11/04 01:28:40;;;;;;;11.55;5.75;;;;;;;;;;1035008;28;20030;-73
2023/11/04 01:29:11;;;;;;;7.93;5.40;;;;;;;;;;1034742;28;20129;-73
2023/11/04 01:29:43;;;;;;;4.72;2.92;;;;;;;;;;1035335;28;20064;-73
2023/11/04 01:30:15;;;;;;;4.75;4.38;;;;;;;;;;1035137;28;20648;-73
2023/11/04 01:30:46;;;;;;;3.33;1.67;;;;;;;;;;1035010;28;20022;-73
2023/11/04 01:31:16;;;;;;;2.63;2.42;;;;;;;;;;1034991;28;20434;-72
2023/11/04 01:31:48;;;;;;;4.53;3.13;;;;;;;;;;1035096;28;20030;-73
2023/11/04 01:32:18;;;;;;;2.67;2.47;;;;;;;;;;1034802;28;20045;-73
2023/11/04 01:32:49;;;;;;;1.20;1.20;;;;;;;;;;1033968;28;20052;-73
2023/11/04 01:33:20;;;;;;;2.60;2.40;;;;;;;;;;1033800;28;20033;-73
2023/11/04 01:33:50;;;;;;;3.25;2.95;;;;;;;;;;1034671;28;20061;-73
2023/11/04 01:34:21;;;;;;;1.77;1.67;;;;;;;;;;1033945;28;20021;-73
2023/11/04 01:34:51;;;;;;;2.97;2.75;;;;;;;;;;1033466;28;21289;-74
2023/11/04 01:35:22;;;;;;;2.30;1.95;;;;;;;;;;1033591;28;20113;-74
2023/11/04 01:35:53;;;;;;;7.03;4.75;;;;;;;;;;1034356;28;20026;-75
2023/11/04 01:36:23;;;;;;;16.90;2.05;;;;;;;;;;1034171;28;20036;-75
2023/11/04 01:36:54;;;;;;;2.78;2.45;;;;;;;;;;1033802;28;20017;-74
2023/11/04 01:37:25;;;;;;;3.17;2.40;;;;;;;;;;1034740;28;20616;-74
2023/11/04 01:37:56;;;;;;;3.65;3.05;;;;;;;;;;1034926;28;20041;-74
2023/11/04 01:38:26;;;;;;;19.55;5.72;;;;;;;;;;1034770;28;20030;-74
2023/11/04 01:38:57;;;;;;;5.05;3.05;;;;;;;;;;1034909;28;20402;-74
2023/11/04 01:39:28;;;;;;;4.82;1.92;;;;;;;;;;1034963;28;20076;-74
2023/11/04 01:39:59;;;;;;;1.30;1.17;;;;;;;;;;1034550;28;20054;-73
2023/11/04 01:40:29;;;;;;;8.38;2.58;;;;;;;;;;1033325;28;20397;-74
2023/11/04 01:41:00;;;;;;;6.60;3.88;;;;;;;;;;1035520;28;20486;-74
2023/11/04 01:41:30;;;;;;;12.75;7.55;;;;;;;;;;1034300;28;20025;-74
2023/11/04 01:42:05;;;;;;;5.00;4.55;;;;;;;;;;1034619;28;20477;-73
2023/11/04 01:42:40;;;;;;;8.85;4.25;;;;;;;;;;1034794;28;20481;-74
2023/11/04 01:43:21;;;;;;;6.20;3.55;;;;;;;;;;1033594;28;20437;-74
2023/11/04 01:43:52;;;;;;;28.95;3.72;;;;;;;;;;1033885;28;20026;-74
2023/11/04 01:44:22;;;;;;;6.70;5.82;;;;;;;;;;1031383;28;20486;-74
2023/11/04 01:44:53;;;;;;;8.68;3.13;;;;;;;;;;1034457;28;20460;-74
2023/11/04 01:45:24;;;;;;;21.38;4.28;;;;;;;;;;1034112;28;20025;-75
2023/11/04 01:46:17;;;;;;;7.40;2.90;;;;;;;;;;1033224;28;20018;-75
2023/11/04 01:46:48;;;;;;;2.55;2.45;;;;;;;;;;1017243;28;20029;-74
2023/11/04 01:47:19;;;;;;;3.72;3.42;;;;;;;;;;1034313;28;20033;-74
2023/11/04 01:47:49;;;;;;;10.38;2.75;;;;;;;;;;1033228;28;20607;-74
2023/11/04 01:48:20;;;;;;;10.27;3.33;;;;;;;;;;1032849;28;20458;-74
2023/11/04 01:48:52;;;;;;;30.52;7.43;;;;;;;;;;1034031;28;20176;-74
2023/11/04 01:49:24;;;;;;;2.25;1.73;;;;;;;;;;1033628;28;20030;-74
2023/11/04 01:49:55;;;;;;;6.45;3.17;;;;;;;;;;1034023;28;20049;-74
2023/11/04 01:50:26;;;;;;;27.83;5.78;;;;;;;;;;1034670;28;20441;-74
2023/11/04 01:50:57;;;;;;;2.95;2.60;;;;;;;;;;1033848;28;20541;-74
2023/11/04 01:51:28;;;;;;;11.93;2.90;;;;;;;;;;1030183;28;20026;-73
2023/11/04 01:51:59;;;;;;;7.22;4.13;;;;;;;;;;1032575;28;20037;-73
2023/11/04 01:52:30;;;;;;;5.53;3.40;;;;;;;;;;1030928;28;20022;-73
2023/11/04 01:53:01;;;;;;;0.95;0.95;;;;;;;;;;1034415;28;20572;-73
2023/11/04 01:53:32;;;;;;;8.55;3.80;;;;;;;;;;1032569;28;20113;-74
2023/11/04 01:54:03;;;;;;;4.20;3.28;;;;;;;;;;1033976;28;20077;-74
2023/11/04 01:54:35;;;;;;;6.85;3.35;;;;;;;;;;1034156;28;20107;-74
2023/11/04 01:55:09;;;;;;;13.52;3.58;;;;;;;;;;1034774;28;20478;-74
2023/11/04 01:55:40;;;;;;;11.85;4.07;;;;;;;;;;1033288;28;20112;-74
2023/11/04 01:56:12;;;;;;;5.15;4.72;;;;;;;;;;1034467;28;20695;-74
2023/11/04 01:56:42;;;;;;;7.10;4.53;;;;;;;;;;1033061;28;20469;-74
2023/11/04 01:57:13;;;;;;;7.13;4.32;;;;;;;;;;1033530;28;20018;-74
2023/11/04 01:57:45;;;;;;;4.38;2.45;;;;;;;;;;1033546;28;20030;-73
2023/11/04 01:58:16;;;;;;;1.95;1.85;;;;;;;;;;1033741;28;20401;-73
2023/11/04 01:58:48;;;;;;;3.80;3.35;;;;;;;;;;1032911;28;20084;-73
2023/11/04 01:59:19;;;;;;;8.55;3.70;;;;;;;;;;1033030;28;20695;-73
2023/11/04 01:59:50;;;;;;;8.45;5.18;;;;;;;;;;1033737;28;20136;-73
2023/11/04 02:00:21;;;;;;;2.67;2.47;;;;;;;;;;1034445;28;20032;-73
2023/11/04 02:00:51;;;;;;;7.32;3.95;;;;;;;;;;1033516;28;20041;-73
2023/11/04 02:01:22;;;;;;;7.68;5.75;;;;;;;;;;1033865;28;20400;-73
2023/11/04 02:01:53;;;;;;;2.78;2.15;;;;;;;;;;1033809;28;20026;-73
2023/11/04 02:02:24;;;;;;;2.75;2.28;;;;;;;;;;1033176;28;20121;-74
2023/11/04 02:02:55;;;;;;;2.05;1.90;;;;;;;;;;1033715;28;20021;-75
2023/11/04 02:03:27;;;;;;;4.28;3.92;;;;;;;;;;1033617;28;20453;-74
2023/11/04 02:03:58;;;;;;;10.57;4.90;;;;;;;;;;1033218;28;20064;-74
2023/11/04 02:04:29;;;;;;;6.70;3.35;;;;;;;;;;1033810;28;20109;-75
2023/11/04 02:05:01;;;;;;;7.65;2.78;;;;;;;;;;1034472;28;20025;-75
2023/11/04 02:05:32;;;;;;;2.40;2.10;;;;;;;;;;1032230;28;20049;-75
2023/11/04 02:06:03;;;;;;;2.20;2.10;;;;;;;;;;1033664;28;20030;-74
2023/11/04 02:06:33;;;;;;;4.85;2.10;;;;;;;;;;1032811;28;20045;-74
2023/11/04 02:07:04;;;;;;;7.97;4.57;;;;;;;;;;1033958;28;20025;-74
2023/11/04 02:07:34;;;;;;;5.32;1.80;;;;;;;;;;1034444;28;20038;-74
2023/11/04 02:08:05;;;;;;;3.20;2.63;;;;;;;;;;1033655;28;20120;-75
2023/11/04 02:08:36;;;;;;;3.33;2.55;;;;;;;;;;1034307;28;20485;-74
2023/11/04 02:09:06;;;;;;;3.28;2.30;;;;;;;;;;1033894;28;20044;-74
2023/11/04 02:09:37;;;;;;;3.03;2.35;;;;;;;;;;1033014;28;20426;-74
2023/11/04 02:10:07;;;;;;;4.45;2.30;;;;;;;;;;1033957;28;20029;-74
2023/11/04 02:10:38;;;;;;;8.48;3.30;;;;;;;;;;1032483;28;20458;-75
2023/11/04 02:11:09;;;;;;;5.28;2.50;;;;;;;;;;1034452;28;20025;-74
2023/11/04 02:11:39;;;;;;;2.35;2.15;;;;;;;;;;1034434;28;20026;-74
2023/11/04 02:12:11;;;;;;;5.30;3.50;;;;;;;;;;1034183;28;20037;-75
2023/11/04 02:12:42;;;;;;;3.78;3.45;;;;;;;;;;1034520;28;20033;-74
2023/11/04 02:13:12;;;;;;;8.20;2.88;;;;;;;;;;1034417;28;20520;-74
2023/11/04 02:13:44;;;;;;;1.80;1.58;;;;;;;;;;1034923;28;20032;-74
2023/11/04 02:14:14;;;;;;;4.93;3.28;;;;;;;;;;1041399;23;20100;-74
2023/11/04 02:14:48;;;;;;;1.90;1.80;;;;;;;;;;1034203;28;20472;-74
2023/11/04 02:15:20;;;;;;;1.95;1.83;;;;;;;;;;1034440;28;20433;-74
2023/11/04 02:15:51;;;;;;;12.68;4.05;;;;;;;;;;1034272;28;20061;-74
2023/11/04 02:16:22;;;;;;;1.38;1.30;;;;;;;;;;1034075;28;20678;-74
2023/11/04 02:16:53;;;;;;;4.82;4.43;;;;;;;;;;1035116;28;20033;-74
2023/11/04 02:17:24;;;;;;;28.25;2.20;;;;;;;;;;1033510;28;20030;-73
2023/11/04 02:17:55;;;;;;;3.13;2.05;;;;;;;;;;1034773;28;20030;-74
2023/11/04 02:18:26;;;;;;;5.60;3.00;;;;;;;;;;1033505;28;20026;-74
2023/11/04 02:18:56;;;;;;;2.08;1.92;;;;;;;;;;1030244;28;20017;-75
2023/11/04 02:19:27;;;;;;;15.20;3.42;;;;;;;;;;1032368;28;20168;-75
2023/11/04 02:20:00;;;;;;;2.05;1.95;;;;;;;;;;1031403;28;20521;-74
2023/11/04 02:20:33;;;;;;;1.00;0.98;;;;;;;;;;1033919;28;20045;-74
2023/11/04 02:21:04;;;;;;;3.40;3.20;;;;;;;;;;1030345;28;20045;-74
2023/11/04 02:21:34;;;;;;;2.33;2.08;;;;;;;;;;1027905;28;20069;-75
2023/11/04 02:22:05;;;;;;;4.00;2.30;;;;;;;;;;1029117;28;20627;-74
2023/11/04 02:22:37;;;;;;;2.60;1.95;;;;;;;;;;1029715;28;20030;-74
2023/11/04 02:23:08;;;;;;;5.85;3.40;;;;;;;;;;1031877;28;20465;-74
2023/11/04 02:23:39;;;;;;;1.48;1.17;;;;;;;;;;1033609;28;20114;-74
2023/11/04 02:24:09;;;;;;;3.97;3.67;;;;;;;;;;1033625;28;20024;-74
2023/11/04 02:24:40;;;;;;;2.40;2.20;;;;;;;;;;1032868;28;20436;-74
2023/11/04 02:25:10;;;;;;;2.70;2.50;;;;;;;;;;1034108;28;20014;-75
2023/11/04 02:25:41;;;;;;;5.80;3.58;;;;;;;;;;1033383;28;20030;-74
2023/11/04 02:26:12;;;;;;;4.18;3.15;;;;;;;;;;1033735;28;20428;-74
2023/11/04 02:26:43;;;;;;;8.77;5.82;;;;;;;;;;1032650;28;20026;-75
2023/11/04 02:27:13;;;;;;;3.17;2.28;;;;;;;;;;1033519;28;20088;-74
2023/11/04 02:27:44;;;;;;;4.88;4.43;;;;;;;;;;1034355;28;20033;-75
2023/11/04 02:28:15;;;;;;;6.80;5.45;;;;;;;;;;1034418;28;20081;-74
2023/11/04 02:28:46;;;;;;;17.25;1.50;;;;;;;;;;1033970;28;20520;-74
2023/11/04 02:29:17;;;;;;;9.95;4.20;;;;;;;;;;1034243;28;20026;-73
2023/11/04 02:29:48;;;;;;;6.15;2.90;;;;;;;;;;1033963;28;20022;-74
2023/11/04 02:30:19;;;;;;;7.15;3.22;;;;;;;;;;1034175;28;20519;-74
2023/11/04 02:30:50;;;;;;;18.40;4.70;;;;;;;;;;1029180;28;20022;-74
2023/11/04 02:31:21;;;;;;;2.92;2.28;;;;;;;;;;1029628;28;20022;-74
2023/11/04 02:31:51;;;;;;;3.70;2.33;;;;;;;;;;1026303;28;20030;-74
2023/11/04 02:32:22;;;;;;;2.97;2.13;;;;;;;;;;1029840;28;21672;-74
2023/11/04 02:32:52;;;;;;;4.95;3.28;;;;;;;;;;1033961;28;20440;-74
2023/11/04 02:33:23;;;;;;;4.55;3.45;;;;;;;;;;1029121;28;20022;-74
2023/11/04 02:33:54;;;;;;;10.80;5.47;;;;;;;;;;1030082;28;20100;-74
2023/11/04 02:34:25;;;;;;;6.10;3.13;;;;;;;;;;1032293;28;20440;-74
2023/11/04 02:34:56;;;;;;;2.30;2.15;;;;;;;;;;1032261;28;20129;-75
2023/11/04 02:35:27;;;;;;;2.00;1.80;;;;;;;;;;1033725;28;20051;-74
2023/11/04 02:35:57;;;;;;;5.18;3.10;;;;;;;;;;1033782;28;20033;-74
2023/11/04 02:36:28;;;;;;;3.85;2.97;;;;;;;;;;1033455;28;20053;-74
2023/11/04 02:36:58;;;;;;;2.03;1.73;;;;;;;;;;1033612;28;20038;-74
2023/11/04 02:37:29;;;;;;;2.90;2.63;;;;;;;;;;1033995;28;20033;-73
2023/11/04 02:37:59;;;;;;;4.63;4.25;;;;;;;;;;1033868;28;20449;-74
2023/11/04 02:38:30;;;;;;;20.65;4.65;;;;;;;;;;1034255;28;20018;-73
2023/11/04 02:39:02;;;;;;;9.63;1.98;;;;;;;;;;1030408;28;20086;-73
2023/11/04 02:39:33;;;;;;;1.20;1.10;;;;;;;;;;1030784;28;20398;-73
2023/11/04 02:40:05;;;;;;;4.97;2.90;;;;;;;;;;1034151;28;20018;-74
2023/11/04 02:40:35;;;;;;;7.10;3.85;;;;;;;;;;1034497;28;20029;-73
2023/11/04 02:41:06;;;;;;;5.10;1.42;;;;;;;;;;1034871;28;20156;-75
2023/11/04 02:41:37;;;;;;;4.72;2.20;;;;;;;;;;1034039;28;20399;-75
2023/11/04 02:42:09;;;;;;;3.10;2.72;;;;;;;;;;1034358;28;20028;-74
2023/11/04 02:42:39;;;;;;;3.92;3.03;;;;;;;;;;1032797;28;20026;-74
2023/11/04 02:43:10;;;;;;;1.67;1.58;;;;;;;;;;1029980;28;20022;-75
2023/11/04 02:43:41;;;;;;;3.92;3.60;;;;;;;;;;1030096;28;20069;-74
2023/11/04 02:44:11;;;;;;;3.28;2.17;;;;;;;;;;1030124;28;20030;-74
2023/11/04 02:44:43;;;;;;;1.83;1.10;;;;;;;;;;1029936;28;20148;-74
2023/11/04 02:45:14;;;;;;;5.50;4.20;;;;;;;;;;1033346;28;20026;-75
2023/11/04 02:45:45;;;;;;;11.85;2.55;;;;;;;;;;1034403;28;20029;-74
2023/11/04 02:46:15;;;;;;;8.30;3.42;;;;;;;;;;1034155;28;20030;-75
2023/11/04 02:46:46;;;;;;;2.22;2.03;;;;;;;;;;1035173;28;20057;-74
2023/11/04 02:47:17;;;;;;;5.20;3.80;;;;;;;;;;1035414;28;20109;-74
2023/11/04 02:47:47;;;;;;;5.68;2.45;;;;;;;;;;1034463;28;20060;-75
2023/11/04 02:48:18;;;;;;;3.97;3.58;;;;;;;;;;1034311;28;20022;-75
2023/11/04 02:48:48;;;;;;;10.15;6.78;;;;;;;;;;1028558;28;20027;-74
2023/11/04 02:49:19;;;;;;;2.90;1.85;;;;;;;;;;1030368;28;20026;-75
2023/11/04 02:49:50;;;;;;;5.75;2.80;;;;;;;;;;1030073;28;20034;-75
2023/11/04 02:50:21;;;;;;;11.73;4.60;;;;;;;;;;1030567;28;20846;-76
2023/11/04 02:50:52;;;;;;;13.25;2.58;;;;;;;;;;1030875;28;20472;-74
2023/11/04 02:51:22;;;;;;;5.15;3.88;;;;;;;;;;1030231;28;20030;-74
2023/11/04 02:51:53;;;;;;;9.45;3.65;;;;;;;;;;1026897;28;20019;-74
2023/11/04 02:52:26;;;;;;;6.30;2.35;;;;;;;;;;1026410;28;20497;-74
2023/11/04 02:52:56;;;;;;;2.03;1.85;;;;;;;;;;1030702;28;20027;-74
2023/11/04 02:53:27;;;;;;;2.42;1.83;;;;;;;;;;1033581;28;20030;-75
2023/11/04 02:53:58;;;;;;;3.88;2.63;;;;;;;;;;1035149;28;20026;-74
2023/11/04 02:54:28;;;;;;;7.65;4.65;;;;;;;;;;1034325;28;20026;-74
2023/11/04 02:54:59;;;;;;;8.70;3.08;;;;;;;;;;1033630;28;20033;-73
2023/11/04 02:55:30;;;;;;;3.03;2.60;;;;;;;;;;1034005;28;20025;-73
2023/11/04 02:56:00;;;;;;;3.78;3.15;;;;;;;;;;1034241;28;20033;-73
2023/11/04 02:56:31;;;;;;;3.97;3.38;;;;;;;;;;1034364;28;20033;-74
2023/11/04 02:57:02;;;;;;;5.68;4.88;;;;;;;;;;1034718;28;20037;-74
2023/11/04 02:57:33;;;;;;;13.60;6.30;;;;;;;;;;1033622;28;20026;-75
2023/11/04 02:58:04;;;;;;;13.48;5.40;;;;;;;;;;1031848;28;20022;-74
2023/11/04 02:58:35;;;;;;;31.33;6.47;;;;;;;;;;1033411;28;20339;-74
2023/11/04 02:59:06;;;;;;;2.15;1.95;;;;;;;;;;1034853;28;20025;-75
2023/11/04 02:59:36;;;;;;;4.68;3.58;;;;;;;;;;1034417;28;20022;-74
2023/11/04 03:00:08;;;;;;;5.30;3.92;;;;;;;;;;1030888;28;20030;-73
2023/11/04 03:00:40;;;;;;;3.08;2.78;;;;;;;;;;1030776;28;20076;-73
2023/11/04 03:01:11;;;;;;;2.15;2.03;;;;;;;;;;1030863;28;20759;-74
2023/11/04 03:01:42;;;;;;;4.55;3.50;;;;;;;;;;1031987;28;20101;-74
2023/11/04 03:02:14;;;;;;;3.08;2.88;;;;;;;;;;1030576;28;20122;-73
2023/11/04 03:02:45;;;;;;;4.38;2.42;;;;;;;;;;1030660;28;20395;-74
2023/11/04 03:03:16;;;;;;;4.82;4.43;;;;;;;;;;1030923;28;20022;-75
2023/11/04 03:03:47;;;;;;;5.20;2.75;;;;;;;;;;1035277;28;20065;-75
2023/11/04 03:04:18;;;;;;;10.82;3.03;;;;;;;;;;1032961;28;20510;-75
2023/11/04 03:04:49;;;;;;;3.92;3.33;;;;;;;;;;1033686;28;20403;-74
2023/11/04 03:05:20;;;;;;;15.05;2.97;;;;;;;;;;1035607;28;20026;-75